Bookmark and Share
Track history (hours):
 

Western King

Last reported at 2014-Mar-12 22:33 UTC. Time now 2014-Apr-16 07:49 UTC.
Position N 50°02' W 125°15'.
Warning: this ship's position is 34 days out of date.

Length 23 m; draft 3.8 m.

Type: Fishing. MMSI: 316003779.

NotesDate/timePositionNaut miles runAvg speedWind from/ knotsBaromVisibWave heightAir tempDewpointWater temp
2014-Mar-12 22:33N 50°02' W 125°15'0 0.0
2014-Mar-12 15:21N 50°02' W 125°15'2 0.5
2014-Mar-12 11:16N 50°00' W 125°13'11 8.7
2014-Mar-12 10:03N 49°53' W 125°02'7 9.0
2014-Mar-12 09:15N 49°47' W 124°54'9 8.9
2014-Mar-12 08:18N 49°41' W 124°45'7 9.1
2014-Mar-12 07:33N 49°36' W 124°38'9 8.9
2014-Mar-12 06:33N 49°29' W 124°30'9 8.9
2014-Mar-12 05:33N 49°22' W 124°22'7 7.0
2014-Mar-12 04:33N 49°20' W 124°12'9 9.1
2014-Mar-12 03:33N 49°17' W 123°58'9 9.1
2014-Mar-12 02:33N 49°14' W 123°45'9 9.3
2014-Mar-12 01:33N 49°10' W 123°32'9 8.6
2014-Mar-12 00:33N 49°07' W 123°20'6 5.8
2014-Mar-11 23:33N 49°07' W 123°11'1 1.0
2014-Mar-11 22:33N 49°07' W 123°10'6 5.7
2014-Mar-11 21:33N 49°06' W 123°19'9 9.1
2014-Mar-11 20:33N 49°15' W 123°17'8 7.8
2014-Mar-11 19:33N 49°12' W 123°06'0 0.0
2014-Mar-11 18:33N 49°12' W 123°06'0 0.0
2014-Mar-11 17:33N 49°12' W 123°06'0 0.0
2014-Mar-11 16:33N 49°12' W 123°06'0 0.0
2014-Mar-11 15:33N 49°12' W 123°06'0 0.0
2014-Mar-11 14:33N 49°12' W 123°06'0 0.0
2014-Mar-11 13:33N 49°12' W 123°06'0 0.0
2014-Mar-11 12:33N 49°12' W 123°06'0 0.0
2014-Mar-11 11:33N 49°12' W 123°06'0 0.0
2014-Mar-11 10:33N 49°12' W 123°06'0 0.0
2014-Mar-11 09:33N 49°12' W 123°06'0 0.0
2014-Mar-11 08:33N 49°12' W 123°06'0 0.0
2014-Mar-11 07:33N 49°12' W 123°06'0 0.0
2014-Mar-11 06:33N 49°12' W 123°06'0 0.0
2014-Mar-11 05:33N 49°12' W 123°06'0 0.0
2014-Mar-11 04:33N 49°12' W 123°06'0 0.0
2014-Mar-11 03:33N 49°12' W 123°06'0 0.0
2014-Mar-11 02:33N 49°12' W 123°06'0 0.0
2014-Mar-11 01:33N 49°12' W 123°06'5 5.2
2014-Mar-11 00:33N 49°14' W 123°13'8 7.9
2014-Mar-10 23:33N 49°17' W 123°25'9 8.9
2014-Mar-10 22:34N 49°19' W 123°38'9 8.7
2014-Mar-10 21:31N 49°21' W 123°51'8 8.5
2014-Mar-10 20:33N 49°23' W 124°04'9 8.8
2014-Mar-10 19:33N 49°25' W 124°17'9 8.7
2014-Mar-10 18:33N 49°26' W 124°30'7 7.5
2014-Mar-10 17:33N 49°28' W 124°41'3 2.4
2014-Mar-10 16:19N 49°31' W 124°44'0 0.0
2014-Mar-10 09:31N 49°31' W 124°44'0 0.0
2014-Mar-10 08:33N 49°31' W 124°44'0 0.0
2014-Mar-10 07:18N 49°31' W 124°44'0 0.0
2014-Mar-10 06:21N 49°31' W 124°44'0 0.0
2014-Mar-09 22:29N 49°31' W 124°44'1 0.2
2014-Mar-09 17:19N 49°30' W 124°42'2 1.2
2014-Mar-09 15:21N 49°28' W 124°44'2 0.1
2014-Mar-09 04:33N 49°29' W 124°46'9 8.5
2014-Mar-09 03:29N 49°37' W 124°53'3 0.1
2014-Mar-07 22:27N 49°39' W 124°55'9 2.9
2014-Mar-07 19:18N 49°33' W 124°44'8 8.2
2014-Mar-07 18:17N 49°40' W 124°51'1 0.4
2014-Mar-07 16:33N 49°41' W 124°52'0 0.0
2014-Mar-07 15:33N 49°41' W 124°52'0 0.0
2014-Mar-07 14:33N 49°41' W 124°52'7 7.0
2014-Mar-07 13:33N 49°36' W 124°44'18 9.2
2014-Mar-07 11:33N 49°26' W 124°20'9 9.1
2014-Mar-07 10:33N 49°22' W 124°08'9 9.1
2014-Mar-07 09:33N 49°18' W 123°55'9 9.2
2014-Mar-07 08:33N 49°14' W 123°42'9 8.9
2014-Mar-07 07:33N 49°10' W 123°30'9 8.9
2014-Mar-07 06:33N 49°06' W 123°18'5 5.4
2014-Mar-07 05:33N 49°07' W 123°10'0 0.1
2014-Mar-07 04:33N 49°07' W 123°10'1 1.0
2014-Mar-07 03:33N 49°07' W 123°11'0 0.0
2014-Mar-07 02:33N 49°07' W 123°11'0 0.0
2014-Mar-07 01:33N 49°07' W 123°11'0 0.0
2014-Mar-07 00:33N 49°07' W 123°11'0 0.0
2014-Mar-06 23:33N 49°07' W 123°11'0 0.0
2014-Mar-06 22:33N 49°07' W 123°11'0 0.0
2014-Mar-06 21:33N 49°07' W 123°11'0 0.0
2014-Mar-06 20:33N 49°07' W 123°11'0 0.0
2014-Mar-06 19:33N 49°07' W 123°11'0 0.0
2014-Mar-06 18:33N 49°07' W 123°12'3 3.2
2014-Mar-06 17:33N 49°07' W 123°16'8 8.5
2014-Mar-06 16:33N 49°09' W 123°29'8 8.3
2014-Mar-06 15:33N 49°12' W 123°40'8 8.1
2014-Mar-06 14:33N 49°15' W 123°52'8 7.8
2014-Mar-06 13:33N 49°18' W 124°03'8 7.6
2014-Mar-06 12:33N 49°21' W 124°14'8 8.2
2014-Mar-06 11:33N 49°24' W 124°26'9 8.8
2014-Mar-06 10:32N 49°27' W 124°39'9 8.8
2014-Mar-06 09:31N 49°32' W 124°50'6 5.8
2014-Mar-06 08:33N 49°37' W 124°53'0 0.2
2014-Mar-06 07:33N 49°37' W 124°54'0 0.3
2014-Mar-06 06:29N 49°37' W 124°53'0 0.2
2014-Mar-06 05:29N 49°37' W 124°53'0 0.2
2014-Mar-06 04:33N 49°37' W 124°54'0 0.2
2014-Mar-06 03:33N 49°37' W 124°54'0 0.3
2014-Mar-06 02:31N 49°38' W 124°54'1 0.6
2014-Mar-06 01:33N 49°37' W 124°53'3 3.2
2014-Mar-06 00:29N 49°40' W 124°51'2 2.3
2014-Mar-05 23:31N 49°42' W 124°50'6 5.7
2014-Mar-05 22:28N 49°37' W 124°49'7 7.4
2014-Mar-05 21:33N 49°31' W 124°43'1010.2
2014-Mar-05 20:33N 49°26' W 124°29'2010.1
2014-Mar-05 18:33N 49°18' W 124°01'1010.1
2014-Mar-05 17:33N 49°14' W 123°47'10 9.7
2014-Mar-05 16:33N 49°10' W 123°33'9 9.5
2014-Mar-05 15:33N 49°07' W 123°20'6 6.3
2014-Mar-05 14:33N 49°07' W 123°10'0 0.0
2014-Mar-05 13:33N 49°07' W 123°10'6 5.7
2014-Mar-05 12:33N 49°08' W 123°19'8 7.8
2014-Mar-05 11:33N 49°15' W 123°16'7 7.3
2014-Mar-05 10:33N 49°12' W 123°06'0 0.0
2014-Mar-05 09:33N 49°12' W 123°06'0 0.0
2014-Mar-05 08:33N 49°12' W 123°06'0 0.0
2014-Mar-05 07:33N 49°12' W 123°06'0 0.0
2014-Mar-05 06:33N 49°12' W 123°06'0 0.0
2014-Mar-05 05:33N 49°12' W 123°06'0 0.0
2014-Mar-05 04:33N 49°12' W 123°06'0 0.0
2014-Mar-05 03:33N 49°12' W 123°06'0 0.0
2014-Mar-05 02:33N 49°12' W 123°06'0 0.0
2014-Mar-05 01:33N 49°12' W 123°06'0 0.0
2014-Mar-05 00:33N 49°12' W 123°06'0 0.0
2014-Mar-04 23:34N 49°12' W 123°06'0 0.0
2014-Mar-04 22:34N 49°12' W 123°06'0 0.0
2014-Mar-04 21:33N 49°12' W 123°06'4 4.3
2014-Mar-04 20:33N 49°13' W 123°12'7 6.6
2014-Mar-04 19:33N 49°16' W 123°21'9 8.9
2014-Mar-04 18:33N 49°18' W 123°35'9 8.7
2014-Mar-04 17:33N 49°20' W 123°48'9 8.7
2014-Mar-04 16:33N 49°22' W 124°01'9 8.6
2014-Mar-04 15:33N 49°24' W 124°13'9 8.5
2014-Mar-04 14:33N 49°26' W 124°26'9 8.6
2014-Mar-04 13:31N 49°28' W 124°40'8 8.2
2014-Mar-04 12:31N 49°32' W 124°50'8 7.9
2014-Mar-04 11:33N 49°39' W 124°55'0 0.1
2014-Mar-04 10:33N 49°39' W 124°55'0 0.1
2014-Mar-04 09:31N 49°39' W 124°55'0 0.2
2014-Mar-04 08:33N 49°39' W 124°55'0 0.0
2014-Mar-04 07:33N 49°39' W 124°55'0 0.0
2014-Mar-04 06:23N 49°39' W 124°55'1 1.0
2014-Mar-04 05:27N 49°39' W 124°53'1 0.7
2014-Mar-04 04:31N 49°39' W 124°54'3 2.5
2014-Mar-04 03:30N 49°36' W 124°52'2 1.8
2014-Mar-04 02:31N 49°38' W 124°54'1 0.9
2014-Mar-04 01:32N 49°39' W 124°55'0 0.4
2014-Mar-04 00:26N 49°39' W 124°54'0 0.2
2014-Mar-03 23:33N 49°39' W 124°54'0 0.3
2014-Mar-03 22:30N 49°39' W 124°54'0 0.1
2014-Mar-03 21:33N 49°39' W 124°54'4 4.0
2014-Mar-03 20:31N 49°35' W 124°52'9 9.2
2014-Mar-03 19:33N 49°28' W 124°43'10 9.7
2014-Mar-03 18:33N 49°24' W 124°30'6 5.6
2014-Mar-03 17:26N 49°21' W 124°21'1 0.9
2014-Mar-03 16:33N 49°22' W 124°22'9 8.6
2014-Mar-03 15:33N 49°25' W 124°34'7 7.0
2014-Mar-03 14:32N 49°28' W 124°44'0 0.0
2014-Mar-03 13:21N 49°28' W 124°44'0 0.0
2014-Mar-03 12:31N 49°28' W 124°44'0 0.0
2014-Mar-03 10:27N 49°28' W 124°44'0 0.0
2014-Mar-03 09:11N 49°28' W 124°44'0 0.0
2014-Mar-03 08:33N 49°28' W 124°44'0 0.0
2014-Mar-03 07:06N 49°28' W 124°44'0 0.0
2014-Mar-03 05:30N 49°28' W 124°44'0 0.0
2014-Mar-03 04:24N 49°28' W 124°44'7 7.1
2014-Mar-03 03:26N 49°33' W 124°51'6 7.4
2014-Mar-03 02:33N 49°39' W 124°52'  

Dump ship's entire track history

sailing weather and tide predictions

Western King — CY7367 — position and weather